Time;durP1;ratioP1;P1;durP2;ratioP2;P2;SDS_P1;SDS_P2;PMS_P1;PMS_P2;Temp;Humidity;BMP_temperature;BMP_pressure;BME280_temperature;BME280_humidity;BME280_pressure;Samples;Min_cycle;Max_cycle;Signal;HPM_P1;HPM_P2
2023/10/02 00:01:24;;;;;;;9.20;6.57;;;;;;;;;;6234528;23;20012;-81
2023/10/02 00:06:36;;;;;;;;;;;;;;;;;;6223772;23;20026;-81
2023/10/02 00:09:05;;;;;;;10.13;6.07;;;;;;;;;;6199476;23;19916;-81
2023/10/02 00:11:39;;;;;;;7.85;6.07;;;;;;;;;;6225565;23;20464;-81
2023/10/02 00:14:19;;;;;;;8.25;5.13;;;;;;;;;;6252460;23;20027;-81
2023/10/02 00:17:07;;;;;;;11.07;5.95;;;;;;;;;;6255769;22;20012;-81
2023/10/02 00:19:39;;;;;;;8.60;6.95;;;;;;;;;;6198777;23;20031;-81
2023/10/02 00:22:08;;;;;;;8.55;5.53;;;;;;;;;;6224051;23;20020;-81
2023/10/02 00:24:41;;;;;;;8.45;5.78;;;;;;;;;;6199550;23;20024;-81
2023/10/02 00:27:10;;;;;;;9.93;5.75;;;;;;;;;;6198922;23;20027;-81
2023/10/02 00:29:51;;;;;;;7.90;5.50;;;;;;;;;;6199823;23;20480;-82
2023/10/02 00:32:21;;;;;;;8.82;5.70;;;;;;;;;;6199255;23;20022;-82
2023/10/02 00:34:48;;;;;;;10.45;6.35;;;;;;;;;;6225705;23;20020;-81
2023/10/02 00:37:18;;;;;;;11.23;5.72;;;;;;;;;;6200096;23;20030;-81
2023/10/02 00:39:47;;;;;;;8.70;5.82;;;;;;;;;;6198658;23;20020;-81
2023/10/02 00:42:25;;;;;;;6.72;5.97;;;;;;;;;;6200418;23;20031;-81
2023/10/02 00:44:54;;;;;;;8.15;7.38;;;;;;;;;;6224508;23;20012;-81
2023/10/02 00:47:38;;;;;;;6.72;5.65;;;;;;;;;;6199360;23;20028;-81
2023/10/02 00:50:10;;;;;;;11.20;6.28;;;;;;;;;;6262175;23;20043;-81
2023/10/02 00:52:42;;;;;;;11.88;7.50;;;;;;;;;;6235252;23;20022;-82
2023/10/02 00:55:14;;;;;;;8.63;5.43;;;;;;;;;;6250840;23;20020;-81
2023/10/02 00:57:45;;;;;;;8.25;6.72;;;;;;;;;;6224708;23;20026;-81
2023/10/02 01:00:20;;;;;;;8.55;5.03;;;;;;;;;;6199917;23;20019;-81
2023/10/02 01:02:51;;;;;;;8.73;6.30;;;;;;;;;;6235576;23;20013;-81
2023/10/02 01:05:22;;;;;;;7.55;5.45;;;;;;;;;;6224985;23;20518;-81
2023/10/02 01:07:54;;;;;;;9.38;5.97;;;;;;;;;;6227152;23;20016;-81
2023/10/02 01:10:29;;;;;;;10.43;5.95;;;;;;;;;;6200822;23;20034;-81
2023/10/02 01:13:05;;;;;;;9.07;6.45;;;;;;;;;;6201641;23;20031;-82
2023/10/02 01:15:33;;;;;;;7.22;5.75;;;;;;;;;;6200986;22;20469;-81
2023/10/02 01:20:48;;;;;;;7.75;6.40;;;;;;;;;;6198611;23;20024;-81
2023/10/02 01:23:17;;;;;;;7.82;7.00;;;;;;;;;;6200397;23;20486;-81
2023/10/02 01:25:50;;;;;;;7.15;6.03;;;;;;;;;;6200276;23;20020;-81
2023/10/02 01:28:20;;;;;;;9.18;5.72;;;;;;;;;;6201074;23;20016;-81
2023/10/02 01:30:50;;;;;;;7.78;6.18;;;;;;;;;;6236350;23;20016;-81
2023/10/02 01:33:22;;;;;;;7.60;5.80;;;;;;;;;;6201400;23;20024;-81
2023/10/02 01:35:51;;;;;;;6.38;5.50;;;;;;;;;;6208712;23;20020;-81
2023/10/02 01:38:26;;;;;;;6.70;4.43;;;;;;;;;;6198353;23;20016;-82
2023/10/02 01:41:02;;;;;;;7.85;5.57;;;;;;;;;;6227182;23;20017;-82
2023/10/02 01:43:36;;;;;;;8.32;5.88;;;;;;;;;;6237363;23;20027;-81
2023/10/02 01:46:05;;;;;;;9.43;6.25;;;;;;;;;;6195913;23;20019;-82
2023/10/02 01:48:44;;;;;;;9.52;5.53;;;;;;;;;;6195860;23;20013;-82
2023/10/02 01:51:25;;;;;;;10.48;6.55;;;;;;;;;;6169100;23;20021;-82
2023/10/02 01:53:56;;;;;;;7.73;5.30;;;;;;;;;;6206311;23;20019;-82
2023/10/02 01:56:27;;;;;;;8.75;5.55;;;;;;;;;;6170957;23;20027;-81
2023/10/02 01:59:08;;;;;;;7.25;5.28;;;;;;;;;;6172136;23;20027;-81
2023/10/02 02:01:46;;;;;;;7.15;6.18;;;;;;;;;;6171689;23;20017;-82
2023/10/02 02:04:14;;;;;;;8.57;5.95;;;;;;;;;;6160485;23;20021;-82
2023/10/02 02:06:51;;;;;;;7.32;5.65;;;;;;;;;;6158266;23;20017;-83
2023/10/02 02:09:24;;;;;;;7.07;5.15;;;;;;;;;;6195987;23;20024;-83
2023/10/02 02:12:10;;;;;;;8.57;5.35;;;;;;;;;;6193525;23;20020;-83
2023/10/02 02:14:49;;;;;;;10.55;6.53;;;;;;;;;;6193923;23;20019;-83
2023/10/02 02:17:21;;;;;;;9.50;5.47;;;;;;;;;;6183895;23;20017;-83
2023/10/02 02:19:51;;;;;;;13.25;5.50;;;;;;;;;;6193999;23;20024;-83
2023/10/02 02:22:23;;;;;;;6.82;4.97;;;;;;;;;;6158812;23;20021;-82
2023/10/02 02:24:58;;;;;;;27.10;7.45;;;;;;;;;;6159969;23;20272;-83
2023/10/02 02:27:27;;;;;;;9.02;6.07;;;;;;;;;;6208657;23;20021;-84
2023/10/02 02:29:56;;;;;;;8.27;6.32;;;;;;;;;;6211953;23;20008;-83
2023/10/02 02:32:44;;;;;;;6.45;5.38;;;;;;;;;;6171874;23;20017;-83
2023/10/02 02:35:14;;;;;;;7.78;6.03;;;;;;;;;;6158901;23;20043;-83
2023/10/02 02:37:44;;;;;;;;;;;;;;;;;;6183866;23;20031;-83
2023/10/02 02:43:10;;;;;;;10.10;6.28;;;;;;;;;;6148382;23;20017;-83
2023/10/02 02:45:36;;;;;;;9.82;6.22;;;;;;;;;;6183240;23;20074;-83
2023/10/02 02:48:10;;;;;;;8.70;6.55;;;;;;;;;;6182989;23;20017;-83
2023/10/02 02:50:40;;;;;;;7.88;5.55;;;;;;;;;;6157917;23;20017;-83
2023/10/02 02:53:21;;;;;;;7.63;5.43;;;;;;;;;;6157194;23;20353;-83
2023/10/02 02:56:14;;;;;;;9.13;5.63;;;;;;;;;;6158687;23;20032;-83
2023/10/02 02:58:48;;;;;;;6.03;4.30;;;;;;;;;;6182138;23;20028;-83
2023/10/02 03:01:21;;;;;;;7.85;4.72;;;;;;;;;;6156677;23;20021;-83
2023/10/02 03:03:49;;;;;;;;;;;;;;;;;;6192485;23;20346;-83
2023/10/02 03:06:22;;;;;;;10.07;6.15;;;;;;;;;;6189825;23;19916;-83
2023/10/02 03:08:52;;;;;;;6.72;5.45;;;;;;;;;;6191801;23;20028;-83
2023/10/02 03:11:21;;;;;;;6.75;4.72;;;;;;;;;;6157320;23;20023;-83
2023/10/02 03:13:54;;;;;;;8.00;6.55;;;;;;;;;;6157351;23;20021;-84
2023/10/02 03:16:29;;;;;;;6.93;5.95;;;;;;;;;;6192941;23;20009;-84
2023/10/02 03:18:56;;;;;;;6.97;4.95;;;;;;;;;;6223218;23;20073;-84
2023/10/02 03:21:24;;;;;;;7.10;5.38;;;;;;;;;;6182618;23;20027;-84
2023/10/02 03:23:53;;;;;;;7.70;6.80;;;;;;;;;;6158501;23;20021;-83
2023/10/02 03:26:37;;;;;;;8.07;6.10;;;;;;;;;;6185122;23;20353;-83
2023/10/02 03:29:11;;;;;;;11.55;7.43;;;;;;;;;;6183048;23;20025;-84
2023/10/02 03:31:43;;;;;;;8.05;7.05;;;;;;;;;;6181232;23;20017;-83
2023/10/02 03:34:28;;;;;;;13.90;5.97;;;;;;;;;;6194076;23;20020;-84
2023/10/02 03:37:00;;;;;;;7.72;6.22;;;;;;;;;;6182098;23;20486;-84
2023/10/02 03:42:21;;;;;;;8.45;6.40;;;;;;;;;;6161823;23;20036;-83
2023/10/02 03:44:54;;;;;;;7.13;6.43;;;;;;;;;;6162944;23;20028;-83
2023/10/02 03:47:22;;;;;;;7.97;5.72;;;;;;;;;;6162962;23;20043;-83
2023/10/02 03:49:50;;;;;;;11.35;7.43;;;;;;;;;;6214470;23;20012;-83
2023/10/02 03:52:18;;;;;;;7.80;5.82;;;;;;;;;;6187722;23;20016;-84
2023/10/02 03:54:45;;;;;;;7.45;6.28;;;;;;;;;;6162883;23;20017;-83
2023/10/02 03:57:37;;;;;;;11.30;6.55;;;;;;;;;;6214539;23;20039;-83
2023/10/02 04:00:18;;;;;;;7.40;6.20;;;;;;;;;;6187863;23;20012;-83
2023/10/02 04:02:49;;;;;;;7.53;5.38;;;;;;;;;;6224115;23;20015;-83
2023/10/02 04:05:30;;;;;;;6.07;5.32;;;;;;;;;;6163290;23;20032;-83
2023/10/02 04:11:02;;;;;;;7.53;4.88;;;;;;;;;;6208007;23;20032;-83
2023/10/02 04:13:39;;;;;;;5.55;3.83;;;;;;;;;;6224196;23;20012;-83
2023/10/02 04:19:00;;;;;;;7.30;5.47;;;;;;;;;;6187525;23;20024;-83
2023/10/02 04:21:33;;;;;;;6.18;5.47;;;;;;;;;;6224083;23;20028;-84
2023/10/02 04:24:00;;;;;;;11.48;6.93;;;;;;;;;;6187350;23;20012;-84
2023/10/02 04:26:29;;;;;;;8.10;6.25;;;;;;;;;;6187379;23;20013;-83
2023/10/02 04:28:58;;;;;;;8.45;5.80;;;;;;;;;;6162658;23;20480;-83
2023/10/02 04:31:28;;;;;;;8.10;6.70;;;;;;;;;;6187395;23;20551;-83
2023/10/02 04:36:42;;;;;;;9.23;5.25;;;;;;;;;;6193176;23;20464;-83
2023/10/02 04:39:51;;;;;;;9.45;6.82;;;;;;;;;;6165334;23;20384;-83
2023/10/02 04:44:56;;;;;;;6.15;4.10;;;;;;;;;;6211618;23;20024;-83
2023/10/02 04:47:27;;;;;;;6.30;5.38;;;;;;;;;;6217900;23;20357;-83
2023/10/02 04:52:55;;;;;;;9.13;4.68;;;;;;;;;;6161246;23;20024;-83
2023/10/02 04:55:24;;;;;;;12.60;6.63;;;;;;;;;;6226261;23;20020;-83
2023/10/02 04:57:54;;;;;;;10.32;5.93;;;;;;;;;;6164859;23;20071;-83
2023/10/02 05:00:32;;;;;;;7.22;4.97;;;;;;;;;;6164919;23;20027;-83
2023/10/02 05:03:17;;;;;;;6.18;4.72;;;;;;;;;;6199194;23;20024;-83
2023/10/02 05:05:49;;;;;;;5.13;4.63;;;;;;;;;;6170418;23;20076;-84
2023/10/02 05:08:21;;;;;;;;;;;;;;;;;;6218777;23;20080;-83
2023/10/02 05:10:56;;;;;;;6.38;5.15;;;;;;;;;;6217110;22;19955;-83
2023/10/02 05:16:12;;;;;;;7.05;5.97;;;;;;;;;;6223190;23;20028;-83
2023/10/02 05:18:47;;;;;;;9.32;6.13;;;;;;;;;;6165121;23;20028;-83
2023/10/02 05:21:17;;;;;;;8.18;7.10;;;;;;;;;;6226153;23;20020;-83
2023/10/02 05:23:56;;;;;;;7.82;5.53;;;;;;;;;;6164318;23;20012;-83
2023/10/02 05:26:38;;;;;;;7.72;4.97;;;;;;;;;;6195150;23;20016;-83
2023/10/02 05:29:07;;;;;;;6.00;5.15;;;;;;;;;;6164408;23;20349;-83
2023/10/02 05:31:35;;;;;;;13.23;6.03;;;;;;;;;;6199345;23;20349;-83
2023/10/02 05:34:13;;;;;;;8.95;6.15;;;;;;;;;;6139787;23;20016;-83
2023/10/02 05:37:03;;;;;;;9.05;4.65;;;;;;;;;;6220291;23;20038;-83
2023/10/02 05:39:31;;;;;;;18.45;6.85;;;;;;;;;;6164380;23;20016;-82
2023/10/02 05:42:05;;;;;;;9.27;5.75;;;;;;;;;;6188775;23;20013;-83
2023/10/02 05:44:34;;;;;;;7.22;5.50;;;;;;;;;;6188862;23;20017;-83
2023/10/02 05:47:08;;;;;;;9.48;6.10;;;;;;;;;;6163964;23;20024;-83
2023/10/02 05:49:38;;;;;;;6.53;5.32;;;;;;;;;;6164175;23;20023;-83
2023/10/02 05:52:07;;;;;;;8.77;4.65;;;;;;;;;;6164366;23;20016;-83
2023/10/02 05:54:37;;;;;;;7.32;5.50;;;;;;;;;;6175422;23;20073;-83
2023/10/02 05:57:09;;;;;;;7.97;5.38;;;;;;;;;;6164444;23;20021;-83
2023/10/02 05:59:46;;;;;;;9.63;6.75;;;;;;;;;;6165127;23;20069;-83
2023/10/02 06:02:18;;;;;;;8.18;5.15;;;;;;;;;;6188621;23;20021;-83
2023/10/02 06:04:52;;;;;;;8.38;5.10;;;;;;;;;;6163942;23;20017;-83
2023/10/02 06:07:43;;;;;;;8.15;5.75;;;;;;;;;;6164161;23;20021;-83
2023/10/02 06:10:25;;;;;;;6.35;5.18;;;;;;;;;;6164896;23;20032;-83
2023/10/02 06:13:02;;;;;;;13.20;6.13;;;;;;;;;;6225004;23;20016;-83
2023/10/02 06:15:44;;;;;;;9.63;6.20;;;;;;;;;;6197875;23;20013;-83
2023/10/02 06:18:24;;;;;;;7.13;4.90;;;;;;;;;;6189772;23;20472;-83
2023/10/02 06:21:00;;;;;;;7.53;5.65;;;;;;;;;;6225650;23;20214;-83
2023/10/02 06:23:37;;;;;;;9.70;5.72;;;;;;;;;;6189287;23;20013;-83
2023/10/02 06:26:09;;;;;;;7.78;5.95;;;;;;;;;;6189496;23;20028;-83
2023/10/02 06:28:37;;;;;;;8.25;7.18;;;;;;;;;;6164320;23;20017;-84
2023/10/02 06:31:06;;;;;;;8.15;5.78;;;;;;;;;;6163952;23;20017;-83
2023/10/02 06:33:36;;;;;;;6.30;5.47;;;;;;;;;;6188990;23;20009;-83
2023/10/02 06:36:07;;;;;;;8.30;6.85;;;;;;;;;;6215854;23;20009;-84
2023/10/02 06:38:38;;;;;;;6.18;5.13;;;;;;;;;;6191760;23;20017;-84
2023/10/02 06:41:12;;;;;;;9.05;6.35;;;;;;;;;;6225527;23;20027;-85
2023/10/02 06:43:40;;;;;;;7.53;5.45;;;;;;;;;;6225644;23;20008;-84
2023/10/02 06:46:13;;;;;;;8.98;5.93;;;;;;;;;;6188958;23;20019;-84
2023/10/02 06:48:43;;;;;;;6.80;5.43;;;;;;;;;;6233790;22;20032;-84
2023/10/02 06:51:14;;;;;;;17.48;6.60;;;;;;;;;;6218849;23;20056;-84
2023/10/02 06:53:42;;;;;;;8.80;4.65;;;;;;;;;;6228779;22;20005;-84
2023/10/02 06:56:10;;;;;;;6.22;5.38;;;;;;;;;;6219531;23;20060;-85
2023/10/02 06:58:49;;;;;;;8.52;5.75;;;;;;;;;;6229226;22;20040;-84
2023/10/02 07:01:19;;;;;;;8.98;5.30;;;;;;;;;;6219341;23;20052;-84
2023/10/02 07:03:50;;;;;;;7.60;5.85;;;;;;;;;;6194578;23;20013;-84
2023/10/02 07:06:24;;;;;;;9.60;6.05;;;;;;;;;;6222938;23;20024;-85
2023/10/02 07:09:10;;;;;;;8.90;4.97;;;;;;;;;;6188665;23;20021;-84
2023/10/02 07:11:42;;;;;;;8.60;5.40;;;;;;;;;;6202281;23;20012;-84
2023/10/02 07:14:14;;;;;;;6.55;5.85;;;;;;;;;;6224665;23;20016;-84
2023/10/02 07:16:42;;;;;;;7.78;5.13;;;;;;;;;;6188472;23;20460;-84
2023/10/02 07:19:09;;;;;;;9.52;4.80;;;;;;;;;;6187926;23;20013;-84
2023/10/02 07:21:40;;;;;;;6.13;4.93;;;;;;;;;;6187753;23;20017;-84
2023/10/02 07:24:25;;;;;;;7.05;4.30;;;;;;;;;;6197688;23;20013;-84
2023/10/02 07:26:53;;;;;;;6.40;4.72;;;;;;;;;;6218363;23;20330;-84
2023/10/02 07:29:37;;;;;;;5.55;4.75;;;;;;;;;;6162899;23;20023;-84
2023/10/02 07:32:07;;;;;;;7.47;5.07;;;;;;;;;;6187106;23;20021;-84
2023/10/02 07:34:34;;;;;;;8.80;4.93;;;;;;;;;;6162385;23;20043;-84
2023/10/02 07:37:05;;;;;;;7.05;4.68;;;;;;;;;;6165972;22;20018;-80
2023/10/02 07:39:38;;;;;;;9.93;5.03;;;;;;;;;;6199430;23;20028;-82
2023/10/02 07:42:10;;;;;;;9.30;4.95;;;;;;;;;;6216068;23;20507;-82
2023/10/02 07:44:41;;;;;;;8.13;5.27;;;;;;;;;;6165168;23;20039;-82
2023/10/02 07:47:16;;;;;;;7.38;4.80;;;;;;;;;;6168513;23;20240;-82
2023/10/02 07:49:46;;;;;;;7.13;4.05;;;;;;;;;;6158934;23;20028;-82
2023/10/02 07:52:26;;;;;;;6.20;4.03;;;;;;;;;;6133672;23;20457;-82
2023/10/02 07:54:59;;;;;;;6.68;4.95;;;;;;;;;;6133724;23;20028;-82
2023/10/02 07:57:32;;;;;;;8.27;5.22;;;;;;;;;;6133775;23;20024;-82
2023/10/02 08:00:33;;;;;;;8.85;5.22;;;;;;;;;;6158749;23;20044;-83
2023/10/02 08:02:53;;;;;;;7.65;5.15;;;;;;;;;;6133599;23;20028;-82
2023/10/02 08:05:20;;;;;;;6.60;4.68;;;;;;;;;;6157672;23;20013;-82
2023/10/02 08:08:08;;;;;;;7.60;4.97;;;;;;;;;;6133384;23;20017;-82
2023/10/02 08:10:49;;;;;;;7.13;4.28;;;;;;;;;;6108644;23;20017;-82
2023/10/02 08:13:32;;;;;;;9.05;4.57;;;;;;;;;;6168636;23;20024;-82
2023/10/02 08:16:07;;;;;;;;;;;;;;;;;;6192391;23;20024;-82
2023/10/02 08:18:55;;;;;;;6.38;4.07;;;;;;;;;;6194695;23;19920;-82
2023/10/02 08:21:33;;;;;;;8.20;4.97;;;;;;;;;;6183575;23;20017;-82
2023/10/02 08:24:04;;;;;;;9.05;4.70;;;;;;;;;;6167912;23;20024;-82
2023/10/02 08:26:38;;;;;;;8.73;5.00;;;;;;;;;;6189007;23;20028;-83
2023/10/02 08:29:08;;;;;;;5.93;4.68;;;;;;;;;;6133148;23;20017;-83
2023/10/02 08:31:42;;;;;;;9.43;5.47;;;;;;;;;;6157113;23;20495;-83
2023/10/02 08:34:12;;;;;;;5.95;4.57;;;;;;;;;;6194426;23;20013;-82
2023/10/02 08:36:42;;;;;;;5.97;4.07;;;;;;;;;;6188664;23;20334;-82
2023/10/02 08:39:11;;;;;;;7.22;4.13;;;;;;;;;;6133169;23;20028;-84
2023/10/02 08:41:44;;;;;;;6.47;4.80;;;;;;;;;;6133625;23;20021;-82
2023/10/02 08:44:14;;;;;;;9.85;5.55;;;;;;;;;;6157467;23;20473;-82
2023/10/02 10:44:14;;;;;;;8.80;6.53;;;;;;;;;;6232498;22;20012;-82
2023/10/02 10:47:04;;;;;;;8.38;5.78;;;;;;;;;;6200914;23;20503;-81
2023/10/02 10:50:29;;;;;;;7.75;5.65;;;;;;;;;;6199520;23;20035;-83
2023/10/02 10:55:49;;;;;;;10.15;6.45;;;;;;;;;;6187060;23;20023;-82
2023/10/02 11:54:15;;;;;;;;;;;;;;;;;;;;;
2023/10/02 12:20:31;;;;;;;11.23;6.25;;;;;;;;;;6244621;23;20021;-82
2023/10/02 12:23:39;;;;;;;11.48;5.75;;;;;;;;;;6130668;23;20017;-82
2023/10/02 12:26:14;;;;;;;9.65;6.32;;;;;;;;;;6141557;23;20024;-82
2023/10/02 12:28:47;;;;;;;7.50;6.30;;;;;;;;;;6161156;23;20028;-83
2023/10/02 12:31:38;;;;;;;8.88;5.85;;;;;;;;;;6161088;23;20016;-82
2023/10/02 12:34:08;;;;;;;9.00;6.13;;;;;;;;;;6222758;22;20058;-82
2023/10/02 12:36:50;;;;;;;9.57;6.50;;;;;;;;;;6249982;22;20019;-82
2023/10/02 12:39:42;;;;;;;10.05;6.32;;;;;;;;;;6253234;22;20387;-82
2023/10/02 12:42:31;;;;;;;11.45;7.07;;;;;;;;;;6243472;22;20337;-82
2023/10/02 12:45:04;;;;;;;10.48;6.80;;;;;;;;;;6245711;22;20015;-82
2023/10/02 12:47:42;;;;;;;9.40;5.90;;;;;;;;;;6274963;22;20356;-82
2023/10/02 12:50:10;;;;;;;12.13;6.28;;;;;;;;;;6222146;22;20019;-82
2023/10/02 12:52:39;;;;;;;9.15;5.95;;;;;;;;;;6221942;22;20022;-82
2023/10/02 12:55:19;;;;;;;;;;;;;;;;;;;;;
2023/10/02 12:58:09;;;;;;;8.85;5.57;;;;;;;;;;6223805;22;20615;-83
2023/10/02 13:00:41;;;;;;;10.75;6.50;;;;;;;;;;6224662;22;20020;-82
2023/10/02 13:03:12;;;;;;;9.73;6.77;;;;;;;;;;6224139;22;20016;-82
2023/10/02 13:05:43;;;;;;;9.73;6.45;;;;;;;;;;6224091;22;20016;-82
2023/10/02 13:08:29;;;;;;;12.18;6.97;;;;;;;;;;6260148;22;20477;-82
2023/10/02 13:11:07;;;;;;;8.02;4.72;;;;;;;;;;6224236;22;20024;-82
2023/10/02 13:13:34;;;;;;;9.32;6.65;;;;;;;;;;6286945;22;20020;-82
2023/10/02 13:16:05;;;;;;;11.38;6.50;;;;;;;;;;6249811;22;20020;-82
2023/10/02 13:18:51;;;;;;;14.30;6.60;;;;;;;;;;6256793;22;20380;-83
2023/10/02 13:21:59;;;;;;;10.95;6.22;;;;;;;;;;6243287;22;20031;-82
2023/10/02 13:24:36;;;;;;;9.38;6.07;;;;;;;;;;6223945;22;20026;-82
2023/10/02 13:51:18;;;;;;;8.05;5.65;;;;;;;;;;6236966;22;20448;-83
2023/10/02 13:53:47;;;;;;;9.40;6.63;;;;;;;;;;6218952;23;20017;-82
2023/10/02 13:56:35;;;;;;;8.85;6.35;;;;;;;;;;6218442;23;20020;-82
2023/10/02 13:59:28;;;;;;;11.40;6.65;;;;;;;;;;6196909;23;20031;-82
2023/10/02 14:02:02;;;;;;;9.77;6.57;;;;;;;;;;6217842;23;20016;-83
2023/10/02 14:04:46;;;;;;;;;;;;;;;;;;;;;
2023/10/02 14:07:36;;;;;;;8.95;5.57;;;;;;;;;;6217208;23;20019;-82
2023/10/02 14:10:19;;;;;;;10.48;6.63;;;;;;;;;;6194160;23;20023;-82
2023/10/02 14:12:53;;;;;;;10.48;6.30;;;;;;;;;;6254985;23;20468;-83
2023/10/02 14:15:22;;;;;;;10.30;6.25;;;;;;;;;;6217943;22;20024;-82
2023/10/02 14:18:08;;;;;;;;;;;;;;;;;;6218725;23;20016;-82
2023/10/02 14:20:40;;;;;;;7.90;5.95;;;;;;;;;;6193133;23;20248;-82
2023/10/02 14:23:14;;;;;;;9.93;6.85;;;;;;;;;;6194242;23;20024;-84
2023/10/02 14:25:49;;;;;;;10.15;6.65;;;;;;;;;;6253651;22;20353;-84
2023/10/02 14:28:24;;;;;;;11.80;6.25;;;;;;;;;;6193567;23;20028;-83
2023/10/02 14:31:08;;;;;;;;;;;;;;;;;;;;;
2023/10/02 14:33:40;;;;;;;9.18;5.95;;;;;;;;;;6243360;23;20039;-83
2023/10/02 14:36:14;;;;;;;9.57;6.78;;;;;;;;;;6225197;23;20016;-83
2023/10/02 14:38:45;;;;;;;8.55;5.93;;;;;;;;;;6228111;23;20472;-83
2023/10/02 14:41:17;;;;;;;10.23;6.72;;;;;;;;;;6217798;23;20495;-83
2023/10/02 14:43:50;;;;;;;11.35;7.30;;;;;;;;;;6228205;23;20464;-83
2023/10/02 14:46:23;;;;;;;10.73;6.25;;;;;;;;;;6218189;23;20008;-83
2023/10/02 14:49:06;;;;;;;8.82;6.28;;;;;;;;;;6193537;23;20016;-83
2023/10/02 14:51:37;;;;;;;13.52;6.00;;;;;;;;;;6223980;23;20027;-83
2023/10/02 14:54:07;;;;;;;10.98;6.97;;;;;;;;;;6192952;23;20023;-83
2023/10/02 14:56:37;;;;;;;10.05;6.60;;;;;;;;;;6217622;23;20016;-83
2023/10/02 14:59:06;;;;;;;9.77;6.47;;;;;;;;;;6228450;23;20012;-83
2023/10/02 15:01:33;;;;;;;8.85;6.00;;;;;;;;;;6217372;23;20012;-83
2023/10/02 15:04:00;;;;;;;9.75;5.85;;;;;;;;;;6243328;23;20013;-83
2023/10/02 15:06:30;;;;;;;11.32;7.43;;;;;;;;;;6192595;23;20069;-83
2023/10/02 15:09:02;;;;;;;9.63;5.85;;;;;;;;;;6192753;23;20020;-83
2023/10/02 15:11:36;;;;;;;11.15;6.72;;;;;;;;;;6192385;23;20023;-83
2023/10/02 15:14:03;;;;;;;9.65;6.85;;;;;;;;;;6192733;23;20459;-83
2023/10/02 15:16:33;;;;;;;9.85;6.90;;;;;;;;;;6192241;23;20479;-83
2023/10/02 15:19:00;;;;;;;12.02;6.93;;;;;;;;;;6192699;23;20016;-81
2023/10/02 15:21:33;;;;;;;;;;;;;;;;;;6218254;23;20428;-81
2023/10/02 15:24:03;;;;;;;10.88;6.43;;;;;;;;;;6217417;23;19916;-83
2023/10/02 15:26:39;;;;;;;9.13;6.07;;;;;;;;;;6244379;22;20019;-83
2023/10/02 15:29:09;;;;;;;10.38;6.35;;;;;;;;;;6228888;23;20031;-82
2023/10/02 15:31:41;;;;;;;11.05;6.30;;;;;;;;;;6217030;23;20103;-82
2023/10/02 15:34:10;;;;;;;8.70;6.70;;;;;;;;;;6192585;23;20027;-82
2023/10/02 15:56:37;;;;;;;9.82;6.53;;;;;;;;;;6249641;22;20028;-83
2023/10/02 15:59:12;;;;;;;16.00;6.90;;;;;;;;;;6244046;23;20016;-83
2023/10/02 16:01:47;;;;;;;8.85;6.90;;;;;;;;;;6254062;23;20317;-83
2023/10/02 16:43:28;;;;;;;15.02;8.18;;;;;;;;;;6260335;22;20348;-82
2023/10/02 16:46:33;;;;;;;14.43;8.32;;;;;;;;;;6198507;23;20057;-82
2023/10/02 16:49:09;;;;;;;14.25;8.38;;;;;;;;;;6194058;23;20024;-83
2023/10/02 16:51:56;;;;;;;;;;;;;;;;;;;;;
2023/10/02 16:54:33;;;;;;;16.58;6.70;;;;;;;;;;6219098;23;20020;-83
2023/10/02 16:57:39;;;;;;;16.95;8.73;;;;;;;;;;6196483;23;20516;-83
2023/10/02 17:00:36;;;;;;;;;;;;;;;;;;;;;
2023/10/02 17:03:20;;;;;;;12.55;7.47;;;;;;;;;;6219025;23;20024;-83
2023/10/02 17:05:58;;;;;;;13.93;8.00;;;;;;;;;;6227682;23;20016;-82
2023/10/02 17:08:28;;;;;;;12.57;6.60;;;;;;;;;;6256002;23;20013;-82
2023/10/02 17:10:57;;;;;;;8.45;7.10;;;;;;;;;;6218810;23;20460;-82
2023/10/02 17:13:29;;;;;;;16.92;7.78;;;;;;;;;;6245895;23;20020;-82
2023/10/02 17:16:11;;;;;;;;;;;;;;;;;;;;;
2023/10/02 17:18:45;;;;;;;12.65;6.78;;;;;;;;;;6188813;23;20464;-81
2023/10/02 17:21:40;;;;;;;;;;;;;;;;;;;;;
2023/10/02 17:24:28;;;;;;;;;;;;;;;;;;;;;
2023/10/02 17:27:27;;;;;;;;;;;;;;;;;;;;;
2023/10/02 17:30:42;;;;;;;10.27;7.07;;;;;;;;;;6218685;23;20452;-83
2023/10/02 17:33:42;;;;;;;10.25;7.43;;;;;;;;;;6195856;23;20024;-83
2023/10/02 17:36:23;;;;;;;;;;;;;;;;;;;;;
2023/10/02 17:39:37;;;;;;;;;;;;;;;;;;;;;
2023/10/02 17:42:53;;;;;;;12.00;6.53;;;;;;;;;;6239901;23;20072;-82
2023/10/02 17:46:01;;;;;;;;;;;;;;;;;;;;;
2023/10/02 17:49:09;;;;;;;12.88;8.48;;;;;;;;;;6256426;23;20047;-82
2023/10/02 17:52:11;;;;;;;;;;;;;;;;;;;;;
2023/10/02 17:55:22;;;;;;;;;;;;;;;;;;;;;
2023/10/02 17:58:11;;;;;;;;;;;;;;;;;;6225524;23;20020;-82
2023/10/02 18:00:50;;;;;;;;;;;;;;;;;;;;;
2023/10/02 18:04:22;;;;;;;;;;;;;;;;;;;;;
2023/10/02 18:08:03;;;;;;;;;;;;;;;;;;;;;
2023/10/02 18:11:39;;;;;;;;;;;;;;;;;;;;;
2023/10/02 18:15:20;;;;;;;17.50;12.65;;;;;;;;;;6119396;23;20036;-82
2023/10/02 18:18:23;;;;;;;16.08;9.30;;;;;;;;;;6110162;23;20017;-82
2023/10/02 18:21:19;;;;;;;15.63;11.02;;;;;;;;;;6153843;23;20025;-82
2023/10/02 18:28:03;;;;;;;;;;;;;;;;;;;;;
2023/10/02 18:35:18;;;;;;;;;;;;;;;;;;;;;
2023/10/02 18:38:35;;;;;;;;;;;;;;;;;;;;;
2023/10/02 18:41:52;;;;;;;14.55;9.55;;;;;;;;;;6061339;23;20025;-82
2023/10/02 18:48:39;;;;;;;12.77;8.93;;;;;;;;;;6101074;23;20032;-82
2023/10/02 18:55:00;;;;;;;;;;;;;;;;;;;;;
2023/10/02 18:58:30;;;;;;;13.93;9.27;;;;;;;;;;6118489;23;20018;-82
2023/10/02 19:01:35;;;;;;;14.20;9.90;;;;;;;;;;6058550;23;20145;-82
2023/10/02 19:08:22;;;;;;;10.93;8.57;;;;;;;;;;5946333;24;20049;-83
2023/10/02 19:11:38;;;;;;;10.60;9.55;;;;;;;;;;5979837;24;20060;-83
2023/10/02 19:18:14;;;;;;;;;;;;;;;;;;;;;
2023/10/02 19:21:06;;;;;;;12.82;10.20;;;;;;;;;;6027910;23;20025;-83
2023/10/02 19:23:51;;;;;;;14.70;10.27;;;;;;;;;;6159239;23;20021;-82
2023/10/02 19:26:33;;;;;;;;;;;;;;;;;;;;;
2023/10/02 19:29:31;;;;;;;17.00;13.37;;;;;;;;;;6140855;23;20017;-83
2023/10/02 19:33:10;;;;;;;15.95;13.77;;;;;;;;;;6125215;23;20272;-83
2023/10/02 19:46:00;;;;;;;17.73;13.10;;;;;;;;;;6018061;23;20029;-83
2023/10/02 19:48:46;;;;;;;13.88;10.93;;;;;;;;;;6040703;23;20015;-83
2023/10/02 19:52:04;;;;;;;;;;;;;;;;;;;;;
2023/10/02 19:55:03;;;;;;;28.65;20.27;;;;;;;;;;6043662;23;20026;-83
2023/10/02 19:58:07;;;;;;;;;;;;;;;;;;;;;
2023/10/02 20:01:16;;;;;;;;;;;;;;;;;;6045942;23;20466;-83
2023/10/02 20:04:29;;;;;;;26.75;17.35;;;;;;;;;;6143370;23;19919;-83
2023/10/02 20:07:50;;;;;;;;;;;;;;;;;;;;;
2023/10/02 20:11:32;;;;;;;;;;;;;;;;;;;;;
2023/10/02 20:14:57;;;;;;;;;;;;;;;;;;;;;
2023/10/02 20:18:24;;;;;;;;;;;;;;;;;;;;;
2023/10/02 20:21:30;;;;;;;;;;;;;;;;;;;;;
2023/10/02 20:24:40;;;;;;;18.00;14.63;;;;;;;;;;6059262;23;20069;-83
2023/10/02 20:27:51;;;;;;;27.38;18.20;;;;;;;;;;6067371;23;20582;-82
2023/10/02 20:34:36;;;;;;;;;;;;;;;;;;;;;
2023/10/02 20:40:57;;;;;;;16.27;13.23;;;;;;;;;;5993292;23;20449;-83
2023/10/02 20:43:47;;;;;;;;;;;;;;;;;;;;;
2023/10/02 20:46:53;;;;;;;22.17;16.75;;;;;;;;;;6067632;23;20019;-83
2023/10/02 20:49:52;;;;;;;15.30;13.25;;;;;;;;;;6116643;23;20021;-83
2023/10/02 20:53:14;;;;;;;;;;;;;;;;;;;;;
2023/10/02 20:56:32;;;;;;;;;;;;;;;;;;;;;
2023/10/02 21:00:10;;;;;;;;;;;;;;;;;;;;;
2023/10/02 21:12:29;;;;;;;;;;;;;;;;;;5996944;23;20495;-83
2023/10/02 21:14:56;;;;;;;11.98;10.40;;;;;;;;;;6158463;23;19923;-82
2023/10/02 21:17:24;;;;;;;18.75;9.93;;;;;;;;;;6219972;23;20337;-83
2023/10/02 21:19:52;;;;;;;17.42;12.07;;;;;;;;;;6248754;23;20016;-83
2023/10/02 21:22:19;;;;;;;14.20;9.48;;;;;;;;;;6248611;23;20023;-83
2023/10/02 21:24:47;;;;;;;13.38;9.00;;;;;;;;;;6232154;23;20035;-82
2023/10/02 21:27:17;;;;;;;16.33;9.68;;;;;;;;;;6248639;22;20016;-83
2023/10/02 21:29:46;;;;;;;13.52;9.02;;;;;;;;;;6223430;23;20012;-83
2023/10/02 21:32:14;;;;;;;16.65;9.52;;;;;;;;;;6222958;23;20483;-82
2023/10/02 21:34:41;;;;;;;11.50;9.30;;;;;;;;;;6222435;23;20074;-83
2023/10/02 21:37:08;;;;;;;10.48;7.97;;;;;;;;;;6248321;22;20016;-82
2023/10/02 21:39:39;;;;;;;14.48;8.23;;;;;;;;;;6248158;23;20019;-82
2023/10/02 21:42:06;;;;;;;13.85;8.82;;;;;;;;;;6221203;23;20341;-83
2023/10/02 21:44:34;;;;;;;14.07;10.70;;;;;;;;;;6221827;23;20016;-82
2023/10/02 21:47:05;;;;;;;13.40;10.05;;;;;;;;;;6224308;23;20453;-83
2023/10/02 21:49:33;;;;;;;13.23;9.25;;;;;;;;;;6199133;23;20020;-82
2023/10/02 21:52:05;;;;;;;16.80;10.73;;;;;;;;;;6221422;23;20032;-82
2023/10/02 21:54:34;;;;;;;13.70;10.20;;;;;;;;;;6248671;23;20068;-82
2023/10/02 21:57:02;;;;;;;15.05;9.10;;;;;;;;;;6251875;22;20452;-82
2023/10/02 21:59:29;;;;;;;11.55;8.55;;;;;;;;;;6248594;23;20015;-82
2023/10/02 22:01:57;;;;;;;12.60;8.38;;;;;;;;;;6196052;23;20369;-83
2023/10/02 22:04:28;;;;;;;16.15;10.65;;;;;;;;;;6197050;23;20020;-82
2023/10/02 22:06:57;;;;;;;10.38;8.88;;;;;;;;;;6252897;22;20019;-83
2023/10/02 22:09:25;;;;;;;16.05;10.38;;;;;;;;;;6221837;23;20016;-83
2023/10/02 22:11:52;;;;;;;12.98;9.70;;;;;;;;;;6197208;23;20022;-82
2023/10/02 22:14:20;;;;;;;14.05;9.25;;;;;;;;;;6221957;23;20364;-83
2023/10/02 22:16:49;;;;;;;13.43;9.73;;;;;;;;;;6221693;23;20035;-83
2023/10/02 22:19:17;;;;;;;12.40;8.63;;;;;;;;;;6221410;23;20020;-81
2023/10/02 22:21:49;;;;;;;14.40;9.85;;;;;;;;;;6222148;23;20012;-81
2023/10/02 22:24:17;;;;;;;13.75;7.97;;;;;;;;;;6222086;23;20031;-82
2023/10/02 22:26:45;;;;;;;9.60;7.82;;;;;;;;;;6197537;23;20527;-83
2023/10/02 22:29:12;;;;;;;14.73;8.77;;;;;;;;;;6221178;23;20022;-82
2023/10/02 22:31:40;;;;;;;11.63;8.85;;;;;;;;;;6248746;23;20093;-82